createdAt,value
2018-07-02T00:00:54.715Z,70.70
2018-07-02T00:03:25.395Z,70.80
2018-07-02T00:08:05.860Z,71.20
2018-07-02T00:10:36.513Z,72.30
2018-07-02T00:13:07.251Z,73.50
2018-07-02T00:15:38.163Z,73.60
2018-07-02T00:18:08.868Z,74.90
2018-07-02T00:20:39.552Z,75.50
2018-07-02T00:23:10.691Z,76.40
2018-07-02T00:25:41.894Z,75.80
2018-07-02T00:30:43.695Z,75.60
2018-07-02T00:33:14.383Z,76.50
2018-07-02T00:35:45.479Z,77.50
2018-07-02T00:38:16.671Z,77.80
2018-07-02T00:40:47.648Z,78.40
2018-07-02T00:45:49.968Z,79.90
2018-07-02T00:48:21.259Z,79.90
2018-07-02T00:50:52.649Z,80.70
2018-07-02T00:53:24.481Z,80.90
2018-07-02T00:55:55.790Z,81.10
2018-07-02T00:58:27.260Z,81.60
2018-07-02T01:00:58.567Z,82.40
2018-07-02T01:03:29.266Z,83.70
2018-07-02T01:06:00.592Z,83.80
2018-07-02T01:08:32.196Z,83.80
2018-07-02T01:11:03.607Z,84.70
2018-07-02T01:16:05.831Z,86.20
2018-07-02T01:18:36.584Z,85.70
2018-07-02T01:21:10.437Z,85.80
2018-07-02T01:23:41.376Z,86.70
2018-07-02T01:26:12.935Z,87.20
2018-07-02T01:28:43.909Z,87.70
2018-07-02T01:31:15.015Z,88.80
2018-07-02T01:33:45.755Z,89.10
2018-07-02T01:36:16.440Z,90.00
2018-07-02T01:38:47.668Z,90.20
2018-07-02T01:41:18.367Z,90.10
2018-07-02T01:43:49.324Z,90.10
2018-07-02T01:46:20.436Z,90.50
2018-07-02T01:48:51.183Z,90.60
2018-07-02T01:51:22.579Z,91.00
2018-07-02T01:53:53.821Z,90.50
2018-07-02T01:56:24.984Z,91.00
2018-07-02T01:58:56.481Z,91.60
2018-07-02T02:08:45.859Z,92.40
2018-07-02T02:11:16.643Z,92.80
2018-07-02T02:13:47.303Z,93.30
2018-07-02T02:16:18.107Z,93.80
2018-07-02T02:18:48.778Z,94.00
2018-07-02T02:21:19.482Z,94.50
2018-07-02T02:26:20.278Z,96.10
2018-07-02T02:28:50.947Z,97.00
2018-07-02T02:31:21.656Z,97.90
2018-07-02T02:33:52.363Z,98.50
2018-07-02T02:36:23.023Z,98.80
2018-07-02T02:38:53.693Z,99.30
2018-07-02T02:41:24.483Z,99.30
2018-07-02T02:46:25.321Z,99.90
2018-07-02T02:48:56.021Z,99.90
2018-07-02T02:51:26.690Z,99.90
2018-07-02T02:53:57.424Z,99.90
2018-07-02T02:56:28.118Z,99.90
2018-07-02T02:58:58.815Z,99.90
2018-07-02T03:01:29.524Z,99.90
2018-07-02T03:04:00.376Z,99.90
2018-07-02T03:06:31.113Z,99.90
2018-07-02T03:09:02.167Z,99.90
2018-07-02T03:11:32.981Z,99.90
2018-07-02T03:14:03.631Z,99.90
2018-07-02T03:16:34.349Z,99.90
2018-07-02T03:19:05.084Z,99.90
2018-07-02T03:21:35.784Z,99.90
2018-07-02T03:24:07.064Z,99.90
2018-07-02T03:26:37.735Z,99.90
2018-07-02T03:29:08.411Z,99.90
2018-07-02T03:31:39.128Z,99.90
2018-07-02T03:36:40.279Z,99.90
2018-07-02T03:41:42.271Z,99.90
2018-07-02T03:46:43.159Z,99.90
2018-07-02T03:49:13.808Z,99.90
2018-07-02T03:51:44.530Z,99.90
2018-07-02T03:54:15.332Z,99.90
2018-07-02T03:56:46.016Z,99.90
2018-07-02T03:59:16.698Z,99.90
2018-07-02T04:01:47.383Z,99.90
2018-07-02T04:04:18.111Z,99.90
2018-07-02T04:06:48.783Z,99.90
2018-07-02T04:09:19.467Z,99.90
2018-07-02T04:14:20.323Z,99.90
2018-07-02T04:16:50.956Z,99.90
2018-07-02T04:19:21.636Z,99.90
2018-07-02T04:21:52.308Z,99.90
2018-07-02T04:24:23.056Z,99.90
2018-07-02T04:26:54.123Z,99.90
2018-07-02T04:29:24.804Z,99.90
2018-07-02T04:31:55.432Z,99.90
2018-07-02T04:34:26.097Z,99.90
2018-07-02T04:36:56.779Z,99.90
2018-07-02T04:39:27.567Z,99.90
2018-07-02T04:41:58.216Z,99.90
2018-07-02T04:44:28.887Z,99.90
2018-07-02T04:46:59.635Z,99.90
2018-07-02T04:49:30.427Z,99.90
2018-07-02T04:52:01.104Z,99.90
2018-07-02T04:54:31.838Z,99.90
2018-07-02T04:57:02.516Z,99.90
2018-07-02T04:59:33.274Z,99.90
2018-07-02T05:02:03.991Z,99.90
2018-07-02T05:04:34.628Z,99.90
2018-07-02T05:07:05.564Z,99.90
2018-07-02T05:09:36.180Z,99.90
2018-07-02T05:12:07.020Z,99.90
2018-07-02T05:14:37.623Z,99.90
2018-07-02T05:17:08.605Z,99.90
2018-07-02T05:19:39.386Z,99.90
2018-07-02T05:22:10.338Z,99.90
2018-07-02T05:24:41.432Z,99.90
2018-07-02T05:27:12.094Z,99.90
2018-07-02T05:32:13.572Z,99.90
2018-07-02T05:34:44.243Z,99.90
2018-07-02T05:37:14.980Z,99.90
2018-07-02T05:39:45.664Z,99.90
2018-07-02T05:42:16.311Z,99.90
2018-07-02T05:44:46.999Z,99.90
2018-07-02T05:47:18.187Z,99.90
2018-07-02T05:49:48.839Z,99.90
2018-07-02T05:52:20.148Z,99.90
2018-07-02T05:54:51.085Z,99.90
2018-07-02T05:57:21.745Z,99.90
2018-07-02T05:59:52.392Z,99.90
2018-07-02T06:02:23.199Z,99.90
2018-07-02T06:04:53.853Z,99.90
2018-07-02T06:07:24.482Z,99.90
2018-07-02T06:09:55.113Z,99.90
2018-07-02T06:12:25.750Z,99.90
2018-07-02T06:14:56.411Z,99.90
2018-07-02T06:17:27.043Z,99.90
2018-07-02T06:19:57.739Z,99.90
2018-07-02T06:22:28.433Z,99.90
2018-07-02T06:24:59.421Z,99.90
2018-07-02T06:27:30.089Z,99.90
2018-07-02T06:30:00.741Z,99.90
2018-07-02T06:32:31.419Z,99.90
2018-07-02T06:35:02.058Z,99.90
2018-07-02T06:37:32.724Z,99.90
2018-07-02T06:40:03.416Z,99.90
2018-07-02T06:42:34.091Z,99.90
2018-07-02T06:45:04.945Z,99.90
2018-07-02T06:47:35.620Z,99.90
2018-07-02T06:50:06.454Z,99.90
2018-07-02T06:52:37.123Z,99.90
2018-07-02T06:55:07.887Z,99.90
2018-07-02T07:00:08.651Z,99.90
2018-07-02T07:02:39.295Z,99.90
2018-07-02T07:05:09.928Z,99.90
2018-07-02T07:07:40.579Z,99.90
2018-07-02T07:10:11.262Z,99.90
2018-07-02T07:12:41.960Z,99.90
2018-07-02T07:15:12.777Z,99.90
2018-07-02T07:17:43.396Z,99.90
2018-07-02T07:20:14.084Z,99.90
2018-07-02T07:25:15.105Z,99.90
2018-07-02T07:27:45.747Z,99.90
2018-07-02T07:30:16.764Z,99.90
2018-07-02T07:32:47.408Z,99.90
2018-07-02T07:35:18.052Z,99.90
2018-07-02T07:37:48.720Z,99.90
2018-07-02T07:40:19.352Z,99.90
2018-07-02T07:42:49.992Z,99.90
2018-07-02T07:45:20.812Z,99.90
2018-07-02T07:47:51.478Z,99.90
2018-07-02T07:50:22.157Z,99.90
2018-07-02T07:52:53.020Z,99.90
2018-07-02T07:55:23.676Z,99.90
2018-07-02T07:57:54.383Z,99.90
2018-07-02T08:00:25.052Z,99.90
2018-07-02T08:02:55.720Z,99.90
2018-07-02T08:05:26.412Z,99.90
2018-07-02T08:07:57.087Z,99.90
2018-07-02T08:10:27.723Z,99.90
2018-07-02T08:12:58.390Z,99.90
2018-07-02T08:15:29.440Z,99.90
2018-07-02T08:18:00.083Z,99.90
2018-07-02T08:20:31.215Z,99.90
2018-07-02T08:23:01.912Z,99.90
2018-07-02T08:25:32.596Z,99.90
2018-07-02T08:28:03.222Z,99.90
2018-07-02T08:30:33.864Z,99.90
2018-07-02T08:33:04.592Z,99.90
2018-07-02T08:35:35.276Z,99.90
2018-07-02T08:38:05.915Z,99.90
2018-07-02T08:40:36.644Z,99.90
2018-07-02T08:43:07.307Z,99.90
2018-07-02T08:45:38.012Z,99.90
2018-07-02T08:48:08.674Z,99.50
2018-07-02T08:50:39.319Z,99.00
2018-07-02T08:53:10.005Z,99.90
2018-07-02T08:55:40.778Z,99.90
2018-07-02T08:58:11.460Z,99.30
2018-07-02T09:00:42.114Z,98.60
2018-07-02T09:03:19.254Z,98.10
2018-07-02T09:05:49.976Z,97.50
2018-07-02T09:08:20.763Z,96.80
2018-07-02T09:10:51.427Z,95.60
2018-07-02T09:13:22.075Z,95.10
2018-07-02T09:34:02.921Z,91.50
2018-07-02T09:36:34.275Z,92.10
2018-07-02T09:39:08.223Z,92.80
2018-07-02T09:41:39.434Z,93.20
2018-07-02T09:44:10.945Z,91.20
2018-07-02T09:46:42.028Z,91.60
2018-07-02T09:49:13.206Z,91.40
2018-07-02T09:51:44.363Z,90.50
2018-07-02T09:54:15.562Z,89.10
2018-07-02T09:56:47.324Z,85.80
2018-07-02T09:59:18.347Z,88.00
2018-07-02T10:01:49.525Z,86.70
2018-07-02T10:04:20.558Z,86.40
2018-07-02T10:06:51.755Z,86.60
2018-07-02T10:09:23.080Z,81.70
2018-07-02T10:11:54.343Z,81.40
2018-07-02T10:14:25.796Z,79.60
2018-07-02T10:16:57.125Z,80.60
2018-07-02T10:19:28.322Z,81.00
2018-07-02T10:21:59.667Z,74.90
2018-07-02T10:24:31.069Z,76.40
2018-07-02T10:27:02.231Z,77.00
2018-07-02T10:29:33.406Z,73.30
2018-07-02T10:32:04.622Z,74.30
2018-07-02T10:39:14.616Z,73.10
2018-07-02T10:41:45.987Z,72.00
2018-07-02T10:44:16.982Z,73.70
2018-07-02T10:46:49.374Z,71.10
2018-07-02T10:49:20.566Z,73.20
2018-07-02T10:51:51.947Z,71.80
2018-07-02T10:54:23.103Z,66.60
2018-07-02T10:56:54.354Z,66.60
2018-07-02T10:59:25.588Z,68.30
2018-07-02T11:01:56.950Z,69.60
2018-07-02T11:04:28.335Z,71.80
2018-07-02T11:06:59.800Z,71.40
2018-07-02T11:12:01.841Z,73.10
2018-07-02T11:14:33.036Z,73.60
2018-07-02T11:17:04.122Z,71.80
2018-07-02T11:19:35.289Z,75.30
2018-07-02T11:22:06.551Z,75.30
2018-07-02T11:24:38.118Z,78.30
2018-07-02T11:27:10.171Z,78.30
2018-07-02T11:29:41.369Z,80.00
2018-07-02T11:34:43.167Z,80.30
2018-07-02T11:37:14.481Z,80.90
2018-07-02T11:42:17.141Z,83.10
2018-07-02T11:44:48.340Z,83.20
2018-07-02T11:47:19.384Z,82.10
2018-07-02T11:49:50.987Z,82.70
2018-07-02T11:52:22.280Z,81.20
2018-07-02T11:54:53.559Z,82.00
2018-07-02T11:57:24.918Z,80.70
2018-07-02T11:59:56.459Z,80.70
2018-07-02T12:02:27.500Z,80.50
2018-07-02T12:04:58.640Z,80.50
2018-07-02T12:07:32.337Z,82.50
2018-07-02T12:10:05.999Z,81.10
2018-07-02T12:17:28.902Z,81.90
2018-07-02T12:20:00.082Z,79.30
2018-07-02T12:22:31.099Z,75.80
2018-07-02T12:25:02.484Z,73.50
2018-07-02T12:27:33.901Z,72.90
2018-07-02T12:30:05.626Z,72.60
2018-07-02T12:32:37.020Z,72.40
2018-07-02T12:35:08.256Z,71.60
2018-07-02T12:37:40.716Z,72.20
2018-07-02T12:42:42.584Z,72.00
2018-07-02T12:45:13.758Z,70.30
2018-07-02T12:47:44.972Z,69.50
2018-07-02T12:50:16.904Z,68.30
2018-07-02T12:52:47.929Z,66.70
2018-07-02T12:55:19.166Z,66.50
2018-07-02T12:57:50.404Z,65.40
2018-07-02T13:00:23.539Z,65.50
2018-07-02T13:02:54.844Z,66.80
2018-07-02T13:05:26.051Z,67.20
2018-07-02T13:07:57.317Z,67.80
2018-07-02T13:10:28.683Z,66.20
2018-07-02T13:13:00.040Z,66.70
2018-07-02T13:15:31.095Z,66.20
2018-07-02T13:18:02.435Z,66.00
2018-07-02T13:20:33.567Z,67.80
2018-07-02T13:23:04.812Z,65.30
2018-07-02T13:25:36.283Z,67.70
2018-07-02T13:28:07.516Z,64.50
2018-07-02T13:30:38.583Z,64.00
2018-07-02T13:33:09.814Z,64.30
2018-07-02T13:35:41.147Z,64.60
2018-07-02T13:38:12.400Z,63.10
2018-07-02T13:40:43.708Z,62.10
2018-07-02T13:43:14.797Z,61.70
2018-07-02T13:45:45.946Z,64.00
2018-07-02T13:48:20.342Z,64.30
2018-07-02T13:50:52.075Z,63.60
2018-07-02T13:53:23.429Z,64.70
2018-07-02T13:55:54.879Z,63.40
2018-07-02T13:58:26.221Z,63.80
2018-07-02T14:00:57.628Z,63.70
2018-07-02T14:03:28.818Z,63.30
2018-07-02T14:05:59.965Z,64.40
2018-07-02T14:08:31.063Z,67.00
2018-07-02T14:11:02.399Z,65.50
2018-07-02T14:13:33.804Z,65.70
2018-07-02T14:16:05.261Z,66.70
2018-07-02T14:18:36.340Z,65.40
2018-07-02T14:21:07.908Z,65.60
2018-07-02T14:23:39.367Z,65.20
2018-07-02T14:26:10.695Z,66.10
2018-07-02T14:28:42.352Z,66.10
2018-07-02T14:31:13.668Z,65.20
2018-07-02T14:33:45.103Z,65.40
2018-07-02T14:36:16.497Z,66.10
2018-07-02T14:38:47.817Z,66.50
2018-07-02T14:41:18.964Z,67.60
2018-07-02T14:43:50.463Z,66.80
2018-07-02T14:46:22.152Z,67.30
2018-07-02T14:48:53.368Z,67.60
2018-07-02T14:51:24.403Z,67.10
2018-07-02T14:53:55.740Z,68.20
2018-07-02T14:56:26.956Z,68.90
2018-07-02T14:58:58.145Z,67.50
2018-07-02T15:01:29.344Z,66.60
2018-07-02T15:04:00.723Z,67.80
2018-07-02T15:06:32.380Z,66.70
2018-07-02T15:09:04.628Z,66.30
2018-07-02T15:11:35.662Z,66.10
2018-07-02T15:14:06.765Z,66.00
2018-07-02T15:16:38.096Z,65.00
2018-07-02T15:19:09.439Z,66.50
2018-07-02T15:21:40.479Z,64.80
2018-07-02T15:24:11.888Z,64.70
2018-07-02T15:26:43.046Z,67.60
2018-07-02T15:29:14.450Z,67.50
2018-07-02T15:31:45.839Z,65.30
2018-07-02T15:34:17.232Z,65.10
2018-07-02T15:36:48.636Z,65.20
2018-07-02T15:39:19.953Z,65.10
2018-07-02T15:41:51.039Z,63.60
2018-07-02T15:44:22.327Z,66.10
2018-07-02T15:46:54.810Z,67.20
2018-07-02T15:49:25.931Z,66.30
2018-07-02T15:51:57.370Z,65.80
2018-07-02T15:54:28.492Z,66.90
2018-07-02T15:56:59.740Z,66.20
2018-07-02T15:59:31.258Z,65.20
2018-07-02T16:02:02.536Z,65.30
2018-07-02T16:04:34.220Z,64.80
2018-07-02T16:07:05.547Z,66.10
2018-07-02T16:09:36.828Z,65.90
2018-07-02T16:12:08.210Z,64.80
2018-07-02T16:14:39.523Z,64.30
2018-07-02T16:17:10.888Z,64.90
2018-07-02T16:19:41.969Z,65.30
2018-07-02T16:22:13.028Z,66.20
2018-07-02T16:24:44.179Z,65.80
2018-07-02T16:27:15.862Z,66.90
2018-07-02T16:29:47.134Z,65.90
2018-07-02T16:32:18.357Z,66.70
2018-07-02T16:34:49.521Z,65.80
2018-07-02T16:37:20.545Z,67.00
2018-07-02T16:39:52.195Z,66.90
2018-07-02T16:42:23.290Z,67.60
2018-07-02T16:44:57.883Z,66.80
2018-07-02T16:47:29.419Z,66.30
2018-07-02T16:50:01.038Z,67.90
2018-07-02T16:52:32.438Z,66.80
2018-07-02T16:55:03.619Z,67.70
2018-07-02T16:57:34.820Z,67.30
2018-07-02T17:00:07.012Z,66.80
2018-07-02T17:02:38.231Z,67.70
2018-07-02T17:05:09.584Z,67.60
2018-07-02T17:07:41.012Z,66.80
2018-07-02T17:10:12.591Z,66.00
2018-07-02T17:12:43.696Z,66.00
2018-07-02T17:15:15.108Z,66.70
2018-07-02T17:17:46.501Z,66.80
2018-07-02T17:20:17.932Z,67.70
2018-07-02T17:22:49.551Z,66.70
2018-07-02T17:25:20.649Z,67.00
2018-07-02T17:27:51.744Z,67.50
2018-07-02T17:32:53.876Z,67.50
2018-07-02T17:35:25.280Z,68.20
2018-07-02T17:37:56.659Z,68.10
2018-07-02T17:42:58.800Z,66.70
2018-07-02T17:45:30.163Z,68.30
2018-07-02T17:48:01.887Z,68.10
2018-07-02T17:50:32.960Z,68.70
2018-07-02T17:53:04.676Z,68.30
2018-07-02T17:55:35.900Z,68.90
2018-07-02T17:58:07.833Z,68.10
2018-07-02T18:00:39.079Z,68.00
2018-07-02T18:03:10.152Z,68.10
2018-07-02T18:05:41.722Z,69.50
2018-07-02T18:08:13.066Z,69.30
2018-07-02T18:10:44.369Z,68.80
2018-07-02T18:13:15.462Z,70.80
2018-07-02T18:15:47.127Z,70.50
2018-07-02T18:20:49.260Z,70.60
2018-07-02T18:23:20.448Z,71.30
2018-07-02T18:25:51.552Z,72.10
2018-07-02T18:28:23.081Z,72.20
2018-07-02T18:30:54.176Z,72.50
2018-07-02T18:33:25.571Z,72.80
2018-07-02T18:35:56.769Z,72.80
2018-07-02T18:38:28.129Z,73.00
2018-07-02T18:40:59.176Z,72.20
2018-07-02T18:43:30.794Z,73.20
2018-07-02T18:46:02.089Z,72.80
2018-07-02T18:48:33.992Z,72.50
2018-07-02T18:51:05.314Z,73.30
2018-07-02T18:53:36.487Z,73.90
2018-07-02T18:56:07.577Z,74.60
2018-07-02T18:58:38.656Z,74.20
2018-07-02T19:01:10.107Z,74.50
2018-07-02T19:03:41.298Z,75.00
2018-07-02T19:06:12.699Z,74.80
2018-07-02T19:08:44.523Z,75.90
2018-07-02T19:11:15.708Z,75.70
2018-07-02T19:16:18.265Z,77.20
2018-07-02T19:18:49.549Z,77.40
2018-07-02T19:21:21.329Z,77.50
2018-07-02T19:23:53.078Z,78.80
2018-07-02T19:26:24.735Z,78.50
2018-07-02T19:28:55.969Z,79.00
2018-07-02T19:31:27.113Z,79.20
2018-07-02T19:33:58.329Z,80.00
2018-07-02T19:36:30.067Z,79.50
2018-07-02T19:39:01.315Z,79.60
2018-07-02T19:41:32.926Z,79.80
2018-07-02T19:44:04.537Z,80.70
2018-07-02T19:46:35.681Z,80.50
2018-07-02T19:49:07.022Z,80.40
2018-07-02T19:51:38.392Z,81.60
2018-07-02T19:54:09.638Z,82.70
2018-07-02T19:56:40.832Z,82.50
2018-07-02T19:59:11.974Z,82.90
2018-07-02T20:01:43.224Z,82.80
2018-07-02T20:04:14.820Z,83.60
2018-07-02T20:06:46.085Z,84.40
2018-07-02T20:09:17.168Z,84.40
2018-07-02T20:11:48.503Z,84.70
2018-07-02T20:14:19.707Z,84.90
2018-07-02T20:16:51.399Z,85.50
2018-07-02T20:19:22.532Z,85.70
2018-07-02T20:21:53.900Z,85.50
2018-07-02T20:24:25.476Z,85.60
2018-07-02T20:26:56.933Z,86.20
2018-07-02T20:29:28.170Z,86.50
2018-07-02T20:31:59.555Z,87.30
2018-07-02T20:34:30.743Z,86.90
2018-07-02T20:37:03.192Z,87.50
2018-07-02T20:39:34.778Z,87.50
2018-07-02T20:42:06.552Z,87.70
2018-07-02T20:44:37.740Z,88.30
2018-07-02T20:47:09.403Z,88.60
2018-07-02T20:49:40.920Z,88.60
2018-07-02T20:52:12.633Z,89.20
2018-07-02T20:54:50.155Z,89.90
2018-07-02T20:57:22.570Z,90.30
2018-07-02T20:59:54.438Z,90.30
2018-07-02T21:02:26.409Z,90.50
2018-07-02T21:07:28.130Z,90.90
2018-07-02T21:10:00.791Z,91.00
2018-07-02T21:12:32.308Z,90.90
2018-07-02T21:15:03.920Z,91.40
2018-07-02T21:17:35.255Z,91.80
2018-07-02T21:20:06.853Z,91.80
2018-07-02T21:22:38.014Z,91.60
2018-07-02T21:25:09.013Z,92.20
2018-07-02T21:27:43.743Z,92.30
2018-07-02T21:30:15.191Z,92.60
2018-07-02T21:32:46.989Z,92.90
2018-07-02T21:35:18.171Z,93.00
2018-07-02T21:37:49.491Z,93.20
2018-07-02T21:40:20.935Z,93.50
2018-07-02T21:42:52.251Z,93.80
2018-07-02T21:45:23.434Z,94.10
2018-07-02T21:47:54.529Z,94.20
2018-07-02T21:50:25.968Z,94.40
2018-07-02T21:52:57.260Z,94.50
2018-07-02T21:55:28.403Z,94.20
2018-07-02T21:58:04.004Z,94.70
2018-07-02T22:00:37.055Z,94.80
2018-07-02T22:03:09.282Z,95.10
2018-07-02T22:05:41.019Z,95.20
2018-07-02T22:08:12.792Z,95.70
2018-07-02T22:10:44.087Z,95.60
2018-07-02T22:13:15.679Z,95.70
2018-07-02T22:15:47.666Z,95.90
2018-07-02T22:18:19.444Z,96.10
2018-07-02T22:20:50.818Z,96.30
2018-07-02T22:23:22.419Z,96.90
2018-07-02T22:28:24.926Z,96.60
2018-07-02T22:30:56.323Z,96.70
2018-07-02T22:33:27.515Z,97.00
2018-07-02T22:35:58.664Z,97.00
2018-07-02T22:38:30.108Z,97.20
2018-07-02T22:41:01.253Z,97.20
2018-07-02T22:43:33.443Z,97.50
2018-07-02T22:46:04.928Z,97.70
2018-07-02T22:48:36.025Z,98.10
2018-07-02T22:51:07.440Z,98.30
2018-07-02T22:53:38.872Z,98.50
2018-07-02T22:56:10.158Z,98.90
2018-07-02T22:58:42.081Z,99.10
2018-07-02T23:01:14.720Z,99.60
2018-07-02T23:03:46.214Z,99.90
2018-07-02T23:06:17.300Z,99.90
2018-07-02T23:08:48.664Z,99.90
2018-07-02T23:11:20.111Z,99.90
2018-07-02T23:13:51.439Z,99.90
2018-07-02T23:16:22.856Z,99.90
2018-07-02T23:18:54.056Z,99.90
2018-07-02T23:21:25.483Z,99.90
2018-07-02T23:23:56.835Z,99.90
2018-07-02T23:26:27.999Z,99.90
2018-07-02T23:28:59.663Z,99.90
2018-07-02T23:32:33.519Z,99.90
2018-07-02T23:35:04.903Z,99.90
2018-07-02T23:37:36.328Z,99.90
2018-07-02T23:40:07.495Z,99.90
2018-07-02T23:42:45.916Z,99.90
2018-07-02T23:45:17.585Z,99.90
2018-07-02T23:47:49.190Z,99.90
2018-07-02T23:50:20.492Z,99.90
2018-07-02T23:52:51.985Z,99.90
2018-07-02T23:55:23.092Z,99.90
2018-07-02T23:57:54.875Z,99.90
